Terminal Aerodrome Forecast
Issued by NWS Sterling, VA

Current Version | Previous Version | Graphics & Text | Print | Product List | Glossary On
Versions: 1 2 3 4 5 6 7 8 9 10 11 12 13 14 15 16 17 18 19 20 21 22
000
FTUS41 KLWX 230857 AAA
TAFDCA
TAF AMD
KDCA 230857Z 2309/2406 29007KT P6SM FEW070
     FM231200 26005KT P6SM BKN050
     FM231400 28015G25KT P6SM BKN060
     FM240000 30012KT P6SM BKN060=

USA.gov is the U.S. government's official web portal to all federal, state and local government web resources and services.